createdAt,value
2022-08-29T00:02:25.320Z,69.14
2022-08-29T00:04:53.428Z,68.92
2022-08-29T00:07:23.874Z,68.25
2022-08-29T00:09:51.875Z,68.12
2022-08-29T00:12:20.052Z,67.43
2022-08-29T00:14:48.132Z,67.45
2022-08-29T00:17:16.187Z,67.12
2022-08-29T00:19:44.177Z,67.34
2022-08-29T00:22:12.158Z,67.55
2022-08-29T00:24:41.693Z,67.54
2022-08-29T00:27:09.702Z,67.71
2022-08-29T00:29:37.906Z,67.69
2022-08-29T00:32:05.978Z,67.81
2022-08-29T00:34:34.442Z,67.95
2022-08-29T00:37:02.590Z,67.41
2022-08-29T00:39:32.885Z,67.59
2022-08-29T00:42:02.618Z,67.69
2022-08-29T00:44:30.599Z,67.63
2022-08-29T00:47:04.176Z,67.79
2022-08-29T00:49:39.211Z,67.78
2022-08-29T00:52:15.052Z,67.84
2022-08-29T00:54:46.056Z,68.06
2022-08-29T00:57:17.110Z,68.07
2022-08-29T00:59:45.427Z,68.36
2022-08-29T01:02:13.454Z,68.54
2022-08-29T01:04:41.762Z,68.54
2022-08-29T01:07:11.052Z,68.59
2022-08-29T01:09:42.603Z,68.64
2022-08-29T01:12:19.352Z,68.39
2022-08-29T01:14:52.201Z,68.60
2022-08-29T01:17:24.093Z,68.66
2022-08-29T01:19:57.226Z,69.00
2022-08-29T01:22:58.875Z,69.76
2022-08-29T01:25:31.960Z,69.52
2022-08-29T01:28:04.790Z,69.79
2022-08-29T01:30:32.979Z,69.82
2022-08-29T01:33:01.012Z,69.69
2022-08-29T01:35:29.396Z,69.70
2022-08-29T01:37:57.969Z,69.83
2022-08-29T01:40:31.601Z,70.02
2022-08-29T01:42:59.704Z,70.01
2022-08-29T01:45:27.704Z,69.85
2022-08-29T01:47:55.974Z,69.78
2022-08-29T01:50:23.915Z,69.68
2022-08-29T01:52:51.982Z,69.80
2022-08-29T01:55:20.088Z,69.81
2022-08-29T01:57:49.751Z,69.96
2022-08-29T02:00:19.763Z,69.99
2022-08-29T02:02:47.909Z,70.01
2022-08-29T02:05:15.882Z,70.34
2022-08-29T02:07:43.842Z,70.42
2022-08-29T02:10:12.449Z,70.74
2022-08-29T02:12:40.755Z,71.18
2022-08-29T02:15:11.326Z,71.41
2022-08-29T02:17:39.865Z,71.55
2022-08-29T02:20:09.495Z,71.55
2022-08-29T02:22:39.267Z,71.44
2022-08-29T02:25:29.523Z,71.84
2022-08-29T02:27:58.335Z,72.48
2022-08-29T02:30:27.756Z,72.62
2022-08-29T02:32:55.806Z,73.06
2022-08-29T02:35:24.204Z,73.00
2022-08-29T02:37:52.414Z,72.82
2022-08-29T02:40:20.806Z,72.72
2022-08-29T02:43:00.623Z,72.52
2022-08-29T02:45:30.920Z,72.24
2022-08-29T02:47:59.544Z,72.24
2022-08-29T02:50:27.551Z,72.34
2022-08-29T02:52:55.565Z,72.61
2022-08-29T02:55:25.215Z,72.53
2022-08-29T02:57:54.557Z,72.87
2022-08-29T03:00:25.569Z,72.45
2022-08-29T03:02:56.332Z,72.42
2022-08-29T03:05:27.478Z,72.33
2022-08-29T03:07:56.017Z,72.35
2022-08-29T03:10:25.072Z,72.82
2022-08-29T03:12:53.074Z,72.56
2022-08-29T03:15:21.648Z,72.56
2022-08-29T03:17:49.699Z,72.56
2022-08-29T03:20:21.852Z,72.22
2022-08-29T03:22:50.416Z,72.60
2022-08-29T03:25:18.616Z,72.43
2022-08-29T03:27:46.632Z,72.65
2022-08-29T03:30:17.508Z,72.96
2022-08-29T03:32:46.096Z,73.74
2022-08-29T03:35:20.009Z,74.14
2022-08-29T03:37:49.735Z,73.62
2022-08-29T03:40:19.362Z,73.37
2022-08-29T03:42:47.727Z,73.26
2022-08-29T03:45:18.590Z,73.14
2022-08-29T03:47:47.243Z,73.31
2022-08-29T03:50:20.234Z,73.05
2022-08-29T03:52:49.979Z,73.20
2022-08-29T03:55:19.558Z,72.98
2022-08-29T03:57:48.263Z,72.72
2022-08-29T04:00:18.303Z,72.79
2022-08-29T04:02:47.830Z,72.78
2022-08-29T04:05:19.149Z,73.12
2022-08-29T04:07:51.541Z,73.07
2022-08-29T04:10:22.443Z,73.36
2022-08-29T04:12:54.450Z,73.27
2022-08-29T04:15:23.304Z,73.26
2022-08-29T04:17:54.328Z,73.72
2022-08-29T04:20:25.684Z,73.55
2022-08-29T04:22:56.493Z,73.55
2022-08-29T04:25:26.212Z,73.56
2022-08-29T04:27:55.126Z,73.91
2022-08-29T04:30:26.065Z,73.69
2022-08-29T04:32:54.045Z,73.84
2022-08-29T04:35:22.661Z,73.88
2022-08-29T04:37:50.796Z,74.04
2022-08-29T04:40:23.555Z,74.15
2022-08-29T04:42:52.192Z,74.10
2022-08-29T04:45:23.770Z,74.05
2022-08-29T04:47:51.891Z,73.51
2022-08-29T04:50:22.701Z,73.90
2022-08-29T04:52:52.381Z,74.28
2022-08-29T04:55:25.714Z,74.09
2022-08-29T04:57:56.510Z,74.20
2022-08-29T05:00:30.485Z,74.26
2022-08-29T05:02:58.801Z,74.04
2022-08-29T05:05:27.792Z,74.16
2022-08-29T05:07:55.787Z,74.18
2022-08-29T05:10:26.346Z,74.18
2022-08-29T05:12:54.363Z,74.40
2022-08-29T05:15:22.414Z,74.21
2022-08-29T05:17:50.513Z,74.27
2022-08-29T05:20:18.704Z,74.34
2022-08-29T05:22:46.808Z,74.15
2022-08-29T05:25:18.208Z,73.90
2022-08-29T05:27:48.130Z,74.11
2022-08-29T05:30:34.237Z,74.15
2022-08-29T05:33:03.571Z,74.00
2022-08-29T05:35:31.511Z,73.91
2022-08-29T05:37:59.573Z,73.94
2022-08-29T05:40:27.660Z,73.72
2022-08-29T05:42:57.289Z,73.58
2022-08-29T05:45:25.280Z,73.48
2022-08-29T05:47:53.310Z,73.99
2022-08-29T05:50:21.395Z,73.87
2022-08-29T05:52:49.683Z,73.83
2022-08-29T05:55:17.709Z,73.99
2022-08-29T05:57:45.887Z,74.05
2022-08-29T06:00:16.878Z,74.40
2022-08-29T06:02:44.991Z,74.71
2022-08-29T06:05:16.105Z,74.50
2022-08-29T06:07:44.044Z,74.59
2022-08-29T06:10:12.075Z,74.92
2022-08-29T06:12:40.007Z,74.79
2022-08-29T06:15:08.944Z,74.78
2022-08-29T06:17:38.916Z,75.10
2022-08-29T06:20:09.811Z,75.00
2022-08-29T06:22:40.460Z,75.14
2022-08-29T06:25:35.212Z,75.78
2022-08-29T06:27:57.698Z,76.52
2022-08-29T06:30:25.876Z,75.75
2022-08-29T06:32:55.247Z,77.30
2022-08-29T06:35:23.195Z,77.97
2022-08-29T06:37:51.277Z,77.81
2022-08-29T06:40:19.304Z,77.18
2022-08-29T06:42:47.242Z,76.75
2022-08-29T06:45:15.206Z,76.23
2022-08-29T06:47:43.395Z,75.83
2022-08-29T06:50:13.143Z,75.17
2022-08-29T06:52:41.230Z,74.62
2022-08-29T06:55:12.958Z,73.79
2022-08-29T06:57:45.541Z,73.05
2022-08-29T07:00:22.044Z,72.35
2022-08-29T07:02:52.696Z,71.62
2022-08-29T07:05:23.631Z,71.26
2022-08-29T07:07:52.652Z,71.23
2022-08-29T07:10:22.824Z,70.90
2022-08-29T07:12:51.629Z,70.66
2022-08-29T07:15:20.478Z,70.21
2022-08-29T07:17:48.980Z,69.27
2022-08-29T07:20:18.796Z,69.08
2022-08-29T07:22:51.434Z,69.28
2022-08-29T07:25:20.908Z,69.59
2022-08-29T07:27:53.295Z,69.45
2022-08-29T07:30:22.153Z,69.46
2022-08-29T07:32:50.264Z,69.65
2022-08-29T07:35:29.572Z,68.89
2022-08-29T07:38:01.726Z,68.97
2022-08-29T07:40:30.279Z,68.41
2022-08-29T07:42:58.646Z,68.33
2022-08-29T07:45:26.662Z,68.13
2022-08-29T07:47:54.602Z,67.71
2022-08-29T07:50:22.619Z,67.50
2022-08-29T07:52:52.496Z,67.08
2022-08-29T07:55:23.023Z,66.56
2022-08-29T07:57:52.804Z,66.64
2022-08-29T08:00:21.899Z,65.84
2022-08-29T08:02:49.968Z,65.89
2022-08-29T08:05:18.587Z,65.53
2022-08-29T08:07:47.305Z,64.93
2022-08-29T08:10:17.208Z,64.87
2022-08-29T08:12:48.133Z,65.02
2022-08-29T08:15:17.115Z,65.18
2022-08-29T08:17:45.635Z,64.94
2022-08-29T08:20:14.619Z,64.89
2022-08-29T08:22:43.011Z,64.70
2022-08-29T08:25:11.073Z,64.26
2022-08-29T08:27:43.358Z,63.19
2022-08-29T08:30:14.634Z,63.58
2022-08-29T08:32:46.445Z,63.83
2022-08-29T08:35:16.316Z,63.57
2022-08-29T08:37:44.599Z,63.03
2022-08-29T08:40:21.173Z,62.39
2022-08-29T08:42:50.661Z,62.56
2022-08-29T08:45:22.965Z,61.35
2022-08-29T08:47:56.849Z,61.72
2022-08-29T08:50:32.618Z,61.06
2022-08-29T08:53:07.453Z,61.27
2022-08-29T08:55:42.702Z,60.42
2022-08-29T08:58:28.930Z,60.47
2022-08-29T09:01:02.653Z,60.49
2022-08-29T09:04:04.037Z,60.02
2022-08-29T09:06:57.269Z,59.08
2022-08-29T09:09:35.944Z,58.67
2022-08-29T09:12:17.435Z,59.13
2022-08-29T09:14:58.607Z,59.16
2022-08-29T09:17:36.367Z,58.81
2022-08-29T09:20:09.058Z,59.32
2022-08-29T09:22:40.717Z,58.95
2022-08-29T09:25:10.740Z,58.91
2022-08-29T09:27:39.939Z,59.07
2022-08-29T09:30:11.458Z,58.42
2022-08-29T09:33:02.671Z,58.14
2022-08-29T09:35:39.783Z,58.10
2022-08-29T09:38:09.971Z,57.75
2022-08-29T09:40:55.959Z,56.19
2022-08-29T09:43:28.490Z,57.46
2022-08-29T09:46:14.223Z,57.38
2022-08-29T09:48:46.009Z,57.46
2022-08-29T09:51:21.593Z,57.74
2022-08-29T09:53:49.980Z,57.46
2022-08-29T09:56:21.458Z,56.80
2022-08-29T09:59:00.868Z,56.15
2022-08-29T10:01:30.037Z,56.34
2022-08-29T10:04:02.052Z,56.53
2022-08-29T10:06:33.493Z,56.12
2022-08-29T10:09:05.895Z,55.44
2022-08-29T10:11:41.828Z,55.85
2022-08-29T10:14:14.767Z,55.33
2022-08-29T10:16:52.268Z,54.63
2022-08-29T10:19:27.217Z,53.76
2022-08-29T10:22:06.946Z,53.96
2022-08-29T10:24:55.996Z,53.05
2022-08-29T10:27:33.854Z,52.06
2022-08-29T10:30:08.589Z,52.74
2022-08-29T10:33:08.088Z,51.50
2022-08-29T10:35:43.803Z,51.79
2022-08-29T10:38:23.335Z,51.39
2022-08-29T10:40:56.608Z,51.30
2022-08-29T10:43:38.336Z,50.30
2022-08-29T10:46:36.255Z,50.46
2022-08-29T10:49:13.294Z,50.31
2022-08-29T10:51:51.654Z,50.36
2022-08-29T10:54:30.339Z,48.69
2022-08-29T10:57:00.407Z,48.61
2022-08-29T10:59:42.658Z,47.41
2022-08-29T11:02:20.179Z,48.47
2022-08-29T11:04:54.820Z,46.40
2022-08-29T11:07:30.145Z,44.11
2022-08-29T11:10:01.572Z,44.47
2022-08-29T11:12:45.225Z,45.21
2022-08-29T11:15:21.229Z,43.86
2022-08-29T11:17:57.802Z,45.20
2022-08-29T11:20:30.231Z,45.60
2022-08-29T11:23:07.125Z,45.34
2022-08-29T11:25:41.777Z,45.45
2022-08-29T11:28:19.023Z,43.60
2022-08-29T11:30:53.928Z,43.42
2022-08-29T11:33:34.174Z,42.36
2022-08-29T11:36:15.249Z,41.20
2022-08-29T11:39:10.748Z,41.89
2022-08-29T11:41:43.407Z,41.86
2022-08-29T11:44:24.239Z,40.20
2022-08-29T11:46:56.546Z,41.25
2022-08-29T11:49:43.755Z,40.61
2022-08-29T11:52:23.197Z,39.88
2022-08-29T11:55:16.082Z,38.39
2022-08-29T11:58:01.776Z,39.80
2022-08-29T12:00:51.538Z,39.59
2022-08-29T12:03:56.656Z,38.41
2022-08-29T12:07:01.516Z,39.92
2022-08-29T12:09:49.786Z,39.86
2022-08-29T12:12:40.426Z,38.74
2022-08-29T12:15:42.223Z,39.90
2022-08-29T12:18:36.565Z,39.72
2022-08-29T12:21:35.391Z,40.70
2022-08-29T12:24:04.547Z,40.80
2022-08-29T12:26:41.970Z,39.42
2022-08-29T12:29:20.201Z,39.05
2022-08-29T12:32:22.370Z,38.29
2022-08-29T12:35:11.197Z,38.78
2022-08-29T12:37:54.603Z,38.46
2022-08-29T12:40:39.006Z,38.06
2022-08-29T12:43:37.997Z,37.71
2022-08-29T12:46:17.945Z,37.92
2022-08-29T12:48:57.294Z,37.93
2022-08-29T12:51:35.079Z,37.11
2022-08-29T12:54:03.205Z,36.97
2022-08-29T12:56:31.486Z,37.91
2022-08-29T12:59:02.235Z,37.54
2022-08-29T13:01:34.565Z,39.00
2022-08-29T13:04:05.381Z,37.49
2022-08-29T13:06:35.042Z,37.51
2022-08-29T13:09:05.051Z,36.56
2022-08-29T13:11:33.972Z,36.86
2022-08-29T13:14:08.607Z,35.82
2022-08-29T13:16:39.203Z,34.83
2022-08-29T13:19:19.715Z,36.17
2022-08-29T13:21:47.863Z,35.93
2022-08-29T13:24:20.436Z,34.95
2022-08-29T13:27:05.695Z,35.32
2022-08-29T13:29:38.094Z,34.84
2022-08-29T13:32:24.148Z,34.19
2022-08-29T13:35:04.071Z,35.71
2022-08-29T13:37:34.679Z,35.24
2022-08-29T13:40:32.424Z,34.23
2022-08-29T13:43:02.309Z,35.60
2022-08-29T13:45:30.735Z,35.53
2022-08-29T13:48:15.832Z,34.66
2022-08-29T13:50:43.886Z,35.17
2022-08-29T13:53:12.258Z,35.45
2022-08-29T13:55:43.132Z,35.11
2022-08-29T13:58:15.102Z,35.75
2022-08-29T14:00:44.235Z,35.08
2022-08-29T14:03:18.202Z,35.36
2022-08-29T14:05:46.383Z,35.34
2022-08-29T14:08:15.056Z,34.92
2022-08-29T14:10:43.486Z,34.95
2022-08-29T14:13:12.956Z,35.21
2022-08-29T14:15:41.963Z,34.66
2022-08-29T14:18:10.463Z,34.40
2022-08-29T14:20:39.982Z,34.02
2022-08-29T14:23:08.538Z,34.12
2022-08-29T14:25:36.528Z,34.27
2022-08-29T14:28:05.305Z,33.91
2022-08-29T14:30:33.475Z,34.10
2022-08-29T14:33:01.675Z,33.79
2022-08-29T14:35:31.827Z,34.13
2022-08-29T14:38:03.007Z,33.63
2022-08-29T14:40:32.473Z,34.22
2022-08-29T14:43:01.331Z,33.95
2022-08-29T14:45:30.573Z,34.08
2022-08-29T14:47:58.990Z,34.20
2022-08-29T14:50:27.173Z,34.20
2022-08-29T14:52:55.233Z,34.24
2022-08-29T14:55:24.692Z,33.93
2022-08-29T14:57:52.666Z,33.99
2022-08-29T15:00:22.732Z,34.81
2022-08-29T15:02:50.966Z,34.34
2022-08-29T15:05:19.276Z,33.10
2022-08-29T15:07:47.628Z,32.54
2022-08-29T15:10:18.017Z,32.15
2022-08-29T15:12:47.604Z,32.91
2022-08-29T15:15:15.692Z,32.33
2022-08-29T15:17:44.406Z,32.84
2022-08-29T15:23:02.451Z,31.54
2022-08-29T15:25:30.413Z,31.27
2022-08-29T15:27:59.781Z,30.85
2022-08-29T15:30:28.351Z,31.30
2022-08-29T15:32:56.313Z,31.87
2022-08-29T15:35:24.326Z,30.73
2022-08-29T15:37:54.363Z,31.37
2022-08-29T15:40:22.671Z,30.96
2022-08-29T15:42:50.936Z,30.95
2022-08-29T15:45:22.602Z,31.17
2022-08-29T15:47:53.937Z,31.65
2022-08-29T15:50:23.431Z,31.25
2022-08-29T15:52:51.383Z,31.57
2022-08-29T15:55:19.436Z,30.49
2022-08-29T15:57:51.427Z,30.04
2022-08-29T16:00:30.294Z,30.36
2022-08-29T16:03:03.436Z,30.25
2022-08-29T16:05:32.809Z,30.78
2022-08-29T16:08:00.867Z,30.75
2022-08-29T16:10:29.387Z,30.73
2022-08-29T16:12:57.449Z,30.49
2022-08-29T16:15:27.747Z,30.85
2022-08-29T16:17:55.802Z,30.90
2022-08-29T16:20:23.800Z,31.31
2022-08-29T16:22:51.755Z,31.60
2022-08-29T16:25:20.208Z,30.86
2022-08-29T16:27:48.173Z,30.91
2022-08-29T16:30:16.562Z,30.30
2022-08-29T16:32:46.181Z,30.51
2022-08-29T16:35:16.757Z,30.23
2022-08-29T16:37:45.302Z,30.66
2022-08-29T16:40:18.271Z,30.79
2022-08-29T16:42:55.592Z,30.96
2022-08-29T16:45:24.396Z,31.07
2022-08-29T16:47:57.390Z,31.36
2022-08-29T16:50:26.056Z,31.34
2022-08-29T16:52:54.251Z,30.88
2022-08-29T16:55:22.346Z,30.61
2022-08-29T16:58:04.324Z,30.75
2022-08-29T17:00:32.374Z,30.84
2022-08-29T17:03:01.756Z,31.10
2022-08-29T17:05:30.520Z,30.81
2022-08-29T17:07:57.405Z,31.23
2022-08-29T17:10:24.349Z,31.11
2022-08-29T17:12:51.155Z,31.48
2022-08-29T17:15:18.125Z,30.97
2022-08-29T17:17:46.117Z,31.35
2022-08-29T17:20:15.893Z,30.99
2022-08-29T17:22:43.959Z,30.65
2022-08-29T17:25:11.920Z,30.86
2022-08-29T17:27:42.852Z,31.10
2022-08-29T17:30:17.662Z,31.53
2022-08-29T17:32:48.631Z,31.40
2022-08-29T17:35:18.164Z,31.64
2022-08-29T17:37:46.173Z,31.93
2022-08-29T17:40:14.343Z,31.56
2022-08-29T17:42:44.019Z,31.53
2022-08-29T17:45:12.529Z,32.09
2022-08-29T17:47:40.680Z,32.76
2022-08-29T17:50:08.954Z,32.69
2022-08-29T17:52:39.713Z,33.28
2022-08-29T17:55:08.757Z,33.45
2022-08-29T17:57:36.744Z,34.18
2022-08-29T18:00:06.837Z,34.51
2022-08-29T18:02:38.501Z,34.88
2022-08-29T18:05:10.118Z,35.44
2022-08-29T18:07:40.338Z,35.52
2022-08-29T18:10:15.384Z,36.08
2022-08-29T18:12:43.332Z,36.59
2022-08-29T18:15:12.949Z,36.65
2022-08-29T18:17:41.759Z,36.85
2022-08-29T18:20:12.242Z,36.53
2022-08-29T18:22:42.541Z,36.74
2022-08-29T18:25:11.498Z,37.32
2022-08-29T18:27:43.667Z,37.10
2022-08-29T18:30:14.226Z,37.57
2022-08-29T18:32:42.545Z,37.52
2022-08-29T18:35:11.176Z,37.32
2022-08-29T18:37:39.664Z,37.63
2022-08-29T18:40:11.461Z,38.12
2022-08-29T18:42:41.329Z,37.85
2022-08-29T18:45:11.016Z,37.99
2022-08-29T18:47:39.009Z,38.37
2022-08-29T18:50:25.852Z,38.07
2022-08-29T18:52:54.878Z,38.34
2022-08-29T18:55:24.968Z,38.88
2022-08-29T18:57:54.190Z,38.79
2022-08-29T19:00:22.640Z,38.51
2022-08-29T19:02:50.672Z,38.66
2022-08-29T19:05:19.086Z,39.31
2022-08-29T19:07:47.037Z,38.97
2022-08-29T19:10:15.154Z,39.33
2022-08-29T19:12:44.531Z,39.53
2022-08-29T19:15:15.233Z,39.77
2022-08-29T19:17:44.071Z,39.75
2022-08-29T19:20:31.919Z,39.75
2022-08-29T19:23:00.246Z,40.12
2022-08-29T19:25:28.677Z,40.25
2022-08-29T19:27:58.335Z,40.67
2022-08-29T19:30:27.017Z,40.55
2022-08-29T19:32:55.536Z,40.69
2022-08-29T19:35:24.153Z,40.51
2022-08-29T19:37:52.580Z,40.66
2022-08-29T19:40:21.801Z,40.56
2022-08-29T19:42:49.996Z,40.72
2022-08-29T19:45:21.134Z,40.85
2022-08-29T19:47:49.903Z,40.76
2022-08-29T19:50:19.584Z,41.07
2022-08-29T19:52:47.827Z,41.39
2022-08-29T19:55:19.096Z,41.86
2022-08-29T19:57:47.799Z,41.80
2022-08-29T20:00:18.416Z,42.05
2022-08-29T20:02:48.634Z,42.13
2022-08-29T20:05:18.604Z,42.18
2022-08-29T20:07:50.171Z,42.45
2022-08-29T20:10:21.458Z,43.11
2022-08-29T20:12:51.080Z,43.38
2022-08-29T20:15:20.269Z,43.23
2022-08-29T20:17:50.182Z,43.16
2022-08-29T20:20:20.969Z,43.41
2022-08-29T20:22:49.539Z,43.62
2022-08-29T20:25:18.479Z,43.24
2022-08-29T20:27:46.849Z,43.13
2022-08-29T20:30:18.260Z,43.47
2022-08-29T20:32:49.433Z,43.23
2022-08-29T20:35:40.008Z,43.34
2022-08-29T20:38:07.857Z,43.58
2022-08-29T20:40:39.284Z,44.08
2022-08-29T20:43:07.406Z,44.20
2022-08-29T20:45:35.530Z,44.22
2022-08-29T20:48:03.813Z,43.81
2022-08-29T20:50:33.229Z,43.79
2022-08-29T20:53:01.179Z,43.81
2022-08-29T20:55:29.184Z,43.79
2022-08-29T20:57:57.190Z,43.83
2022-08-29T21:00:25.584Z,44.61
2022-08-29T21:03:11.252Z,44.56
2022-08-29T21:05:42.312Z,44.84
2022-08-29T21:08:11.701Z,44.97
2022-08-29T21:10:39.743Z,45.20
2022-08-29T21:13:08.998Z,45.52
2022-08-29T21:15:37.254Z,45.86
2022-08-29T21:18:05.574Z,45.57
2022-08-29T21:20:33.818Z,44.98
2022-08-29T21:23:06.147Z,45.16
2022-08-29T21:25:34.324Z,44.95
2022-08-29T21:28:02.607Z,45.42
2022-08-29T21:30:34.919Z,45.46
2022-08-29T21:33:03.380Z,45.73
2022-08-29T21:35:31.345Z,46.46
2022-08-29T21:37:59.344Z,46.64
2022-08-29T21:40:28.819Z,46.35
2022-08-29T21:42:57.065Z,46.55
2022-08-29T21:45:25.015Z,46.79
2022-08-29T21:47:54.718Z,46.82
2022-08-29T21:50:23.814Z,46.58
2022-08-29T21:52:51.799Z,46.54
2022-08-29T21:55:22.254Z,46.45
2022-08-29T21:57:55.206Z,47.10
2022-08-29T22:00:25.979Z,46.71
2022-08-29T22:02:55.435Z,46.71
2022-08-29T22:05:23.769Z,46.51
2022-08-29T22:07:51.827Z,47.02
2022-08-29T22:10:22.995Z,47.06
2022-08-29T22:12:53.015Z,46.79
2022-08-29T22:15:39.409Z,46.99
2022-08-29T22:18:08.702Z,46.78
2022-08-29T22:20:38.456Z,47.11
2022-08-29T22:23:07.823Z,47.08
2022-08-29T22:25:36.652Z,47.23
2022-08-29T22:28:06.785Z,46.83
2022-08-29T22:30:34.854Z,47.14
2022-08-29T22:33:02.812Z,47.36
2022-08-29T22:35:31.083Z,47.14
2022-08-29T22:37:59.530Z,47.68
2022-08-29T22:40:27.944Z,47.43
2022-08-29T22:42:57.051Z,47.15
2022-08-29T22:45:26.585Z,47.65
2022-08-29T22:47:54.565Z,47.11
2022-08-29T22:50:25.122Z,47.77
2022-08-29T22:52:56.381Z,47.06
2022-08-29T22:57:51.531Z,48.05
2022-08-29T23:00:23.184Z,48.28
2022-08-29T23:02:52.930Z,48.14
2022-08-29T23:05:24.283Z,49.12
2022-08-29T23:07:52.724Z,49.11
2022-08-29T23:10:22.121Z,48.98
2022-08-29T23:12:50.776Z,49.44
2022-08-29T23:15:19.665Z,49.75
2022-08-29T23:17:47.690Z,49.85
2022-08-29T23:20:17.274Z,49.88
2022-08-29T23:22:47.511Z,49.89
2022-08-29T23:25:16.779Z,50.41
2022-08-29T23:27:44.808Z,50.55
2022-08-29T23:30:14.371Z,50.34
2022-08-29T23:32:42.653Z,50.71
2022-08-29T23:35:11.218Z,50.47
2022-08-29T23:37:40.593Z,50.54
2022-08-29T23:40:09.622Z,51.04
2022-08-29T23:42:37.795Z,51.18
2022-08-29T23:45:06.838Z,51.11
2022-08-29T23:47:36.076Z,50.25
2022-08-29T23:50:05.147Z,50.65
2022-08-29T23:52:33.177Z,50.16
2022-08-29T23:55:03.055Z,51.18
2022-08-29T23:57:31.036Z,50.99
